Weather at Shempston Farm Airstrip

Public forecast

Using degrees Celsius for public forecast. Weather courtesy of forecast.io.

Closest aviation weather report (METAR) to Shempston Farm Airstrip

Closest report is RAF Lossiemouth, 1.0 nm (1.9 km) ENE.

2024/06/21 17:50 (retrieved 23 minutes ago)

EGQS 211750Z 19005KT 9999 -RA FEW025 BKN070 18/12 Q1004 RMK BLU

Closest aviation forecast (TAF) to Shempston Farm Airstrip

Closest forecast is RAF Lossiemouth, 1.0 nm (1.9 km) ENE.

2024/06/21 18:51 (retrieved 0 seconds ago)

TAF TAF EGQS 211645Z 2118/2212 21008KT 9999 SCT040 PROB30 TEMPO 2122/2204 SCT020